Terminal Aerodrome Forecast
Issued by NWS Greer, SC

Home | Current Version | Previous Version | Text Only | Print | Product List | Glossary On
Versions: 1 2 3 4 5 6 7 8 9 10 11 12 13
000
FTUS42 KGSP 240538
TAFGSP
TAF
KGSP 240538Z 2406/2506 14003KT P6SM FEW250
     FM241600 13010KT P6SM FEW250
     FM250200 12004KT P6SM BKN250=

USA.gov is the U.S. government's official web portal to all federal, state and local government web resources and services.